Time;durP1;ratioP1;P1;durP2;ratioP2;P2;SDS_P1;SDS_P2;PMS_P1;PMS_P2;Temp;Humidity;BMP_temperature;BMP_pressure;BME280_temperature;BME280_humidity;BME280_pressure;Samples;Min_cycle;Max_cycle;Signal;HPM_P1;HPM_P2
2022/08/18 00:02:33;;;;;;;;;18.75;16.00;;;;;24.89;52.28;100771.66;5077876;28;45376;-43
2022/08/18 00:04:59;;;;;;;;;17.00;15.50;;;;;24.83;52.87;100770.28;5077706;28;46072;-44
2022/08/18 00:07:31;;;;;;;;;18.75;16.00;;;;;24.84;52.53;100768.50;5087001;28;45307;-44
2022/08/18 00:09:57;;;;;;;;;16.25;16.25;;;;;24.84;52.77;100771.16;5095113;28;45546;-44
2022/08/18 00:12:27;;;;;;;;;14.00;13.50;;;;;24.82;53.16;100771.25;5082752;28;45628;-45
2022/08/18 00:14:53;;;;;;;;;14.50;12.50;;;;;24.88;52.41;100769.94;5076520;28;46361;-48
2022/08/18 00:17:19;;;;;;;;;13.50;13.50;;;;;24.92;52.38;100763.47;5076967;28;45176;-45
2022/08/18 00:19:45;;;;;;;;;14.00;14.00;;;;;24.96;52.17;100764.94;5077074;28;45383;-44
2022/08/18 00:22:13;;;;;;;;;17.00;16.00;;;;;24.99;52.15;100770.00;5077146;28;45244;-44
2022/08/18 00:24:38;;;;;;;;;15.75;14.00;;;;;25.03;52.73;100772.41;5077489;28;46395;-46
2022/08/18 00:27:05;;;;;;;;;14.25;13.50;;;;;25.04;51.93;100763.50;5078205;28;45413;-47
2022/08/18 00:29:30;;;;;;;;;14.25;13.00;;;;;25.06;52.43;100767.72;5093255;28;46150;-46
2022/08/18 00:31:56;;;;;;;;;16.50;14.75;;;;;25.07;52.16;100772.06;5101463;28;45007;-46
2022/08/18 00:34:21;;;;;;;;;15.75;15.75;;;;;25.06;51.91;100774.84;5101221;28;45128;-47
2022/08/18 00:36:47;;;;;;;;;13.75;13.50;;;;;25.01;52.54;100770.72;5079714;28;45323;-45
2022/08/18 00:39:12;;;;;;;;;15.50;14.50;;;;;25.03;52.72;100761.81;5083532;28;45646;-44
2022/08/18 00:41:38;;;;;;;;;14.00;13.75;;;;;25.04;52.22;100763.50;5087843;28;45221;-45
2022/08/18 00:44:03;;;;;;;;;15.50;15.50;;;;;25.05;52.58;100767.84;5092604;28;46320;-46
2022/08/18 00:46:32;;;;;;;;;18.50;15.50;;;;;25.05;52.31;100767.84;5089576;28;45351;-44
2022/08/18 00:48:58;;;;;;;;;15.75;14.25;;;;;25.06;52.42;100765.06;5082126;28;45399;-44
2022/08/18 00:51:41;;;;;;;;;13.75;11.25;;;;;25.08;51.98;100775.56;5076046;28;45563;-45
2022/08/18 00:54:17;;;;;;;;;16.75;15.00;;;;;25.08;52.29;100770.28;5075449;28;47133;-44
2022/08/18 00:56:50;;;;;;;;;13.25;12.00;;;;;25.09;52.43;100772.78;5076515;28;45314;-44
2022/08/18 00:59:36;;;;;;;;;14.00;13.00;;;;;25.08;52.35;100773.75;5076167;28;45220;-44
2022/08/18 01:02:05;;;;;;;;;13.75;13.75;;;;;25.09;52.11;100779.88;5075757;28;45557;-44
2022/08/18 01:04:38;;;;;;;;;14.25;13.00;;;;;25.10;52.08;100776.28;5075825;28;47504;-44
2022/08/18 01:07:11;;;;;;;;;15.25;13.00;;;;;25.09;52.11;100775.44;5075665;28;45433;-46
2022/08/18 01:09:36;;;;;;;;;14.75;14.00;;;;;25.08;52.33;100778.22;5076010;28;45541;-45
2022/08/18 01:12:01;;;;;;;;;13.00;12.00;;;;;25.08;51.99;100775.56;5075775;28;45407;-45
2022/08/18 01:14:27;;;;;;;;;13.00;13.00;;;;;25.09;51.79;100777.25;5075760;28;47154;-43
2022/08/18 01:22:31;;;;;;;;;16.75;15.00;;;;;25.07;51.88;100763.28;5081912;28;45256;-46
2022/08/18 01:27:43;;;;;;;;;13.00;13.00;;;;;25.00;51.98;100768.19;5076100;28;45307;-45
2022/08/18 01:30:13;;;;;;;;;14.50;14.50;;;;;24.99;52.00;100764.69;5075588;28;45336;-44
2022/08/18 01:32:40;;;;;;;;;14.50;14.50;;;;;24.99;52.33;100764.69;5075841;28;45469;-46
2022/08/18 01:35:09;;;;;;;;;16.00;15.00;;;;;25.00;52.09;100773.50;5075254;28;46361;-48
2022/08/18 01:37:35;;;;;;;;;15.75;14.75;;;;;25.03;52.46;100777.72;5075573;28;45865;-47
2022/08/18 01:40:04;;;;;;;;;13.25;12.75;;;;;25.01;51.91;100783.97;5075569;28;45465;-46
2022/08/18 01:42:30;;;;;;;;;13.75;13.00;;;;;24.97;52.37;100779.84;5057744;28;45517;-45
2022/08/18 01:44:55;;;;;;;;;16.75;13.75;;;;;25.00;52.08;100778.81;5078292;28;45786;-50
2022/08/18 01:47:21;;;;;;;;;16.50;14.75;;;;;25.00;51.93;100778.81;5085455;28;45385;-44
2022/08/18 01:49:46;;;;;;;;;17.25;16.00;;;;;25.00;52.08;100779.63;5073584;28;45320;-44
2022/08/18 01:52:20;;;;;;;;;13.50;12.25;;;;;25.00;51.86;100790.25;5083688;28;45344;-44
2022/08/18 01:54:50;;;;;;;;;13.25;12.25;;;;;25.01;52.26;100780.50;5078509;28;46635;-44
2022/08/18 01:57:17;;;;;;;;;16.00;13.75;;;;;25.01;51.79;100788.44;5079260;28;45457;-43
2022/08/18 01:59:42;;;;;;;;;14.25;13.50;;;;;25.00;51.79;100787.59;5080020;28;45350;-44
2022/08/18 02:02:13;;;;;;;;;18.75;14.75;;;;;24.99;51.60;100793.84;5097530;27;45253;-46
2022/08/18 02:04:41;;;;;;;;;19.00;14.50;;;;;24.98;51.58;100784.19;5080799;28;46263;-47
2022/08/18 02:07:09;;;;;;;;;16.00;15.00;;;;;24.98;52.17;100781.56;5093488;28;45413;-43
2022/08/18 02:09:37;;;;;;;;;15.25;14.25;;;;;24.99;51.95;100785.06;5102593;28;44659;-44
2022/08/18 02:12:04;;;;;;;;;15.75;13.75;;;;;24.97;51.73;100777.19;5092177;28;44792;-47
2022/08/18 02:14:30;;;;;;;;;16.75;15.50;;;;;24.96;51.92;100775.53;5060907;28;46017;-45
2022/08/18 02:16:56;;;;;;;;;14.00;14.00;;;;;24.96;51.44;100780.84;5078548;28;45406;-44
2022/08/18 02:19:22;;;;;;;;;14.75;13.25;;;;;24.96;51.75;100785.28;5078621;28;45224;-44
2022/08/18 02:21:47;;;;;;;;;13.75;12.50;;;;;24.93;51.43;100788.16;5078592;28;45350;-43
2022/08/18 02:24:12;;;;;;;;;16.00;15.00;;;;;24.90;51.10;100797.19;5078473;28;46818;-43
2022/08/18 02:26:38;;;;;;;;;11.00;11.00;;;;;24.86;51.33;100806.31;5078331;28;45349;-44
2022/08/18 02:29:03;;;;;;;;;15.25;14.00;;;;;24.83;51.50;100803.94;5078360;28;45375;-49
2022/08/18 02:31:29;;;;;;;;;12.50;12.50;;;;;24.80;51.43;100802.34;5078507;28;45565;-49
2022/08/18 02:33:55;;;;;;;;;13.00;13.00;;;;;24.78;51.41;100798.09;5078423;28;46365;-46
2022/08/18 02:36:21;;;;;;;;;13.25;12.00;;;;;24.74;51.15;100801.97;5089200;28;45210;-45
2022/08/18 02:38:46;;;;;;;;;14.75;12.50;;;;;24.72;51.32;100795.94;5099074;28;44768;-44
2022/08/18 02:41:13;;;;;;;;;12.00;12.00;;;;;24.68;50.77;100798.78;5083950;28;45434;-44
2022/08/18 02:43:40;;;;;;;;;14.25;12.25;;;;;24.65;51.27;100798.97;5083434;28;46382;-44
2022/08/18 02:46:06;;;;;;;;;14.00;13.00;;;;;24.64;51.34;100796.44;5078009;28;45449;-50
2022/08/18 02:51:04;;;;;;;;;12.00;10.75;;;;;24.59;51.28;100786.19;5078283;28;45395;-47
2022/08/18 02:53:29;;;;;;;;;14.00;12.75;;;;;24.57;51.19;100789.91;5077821;28;46364;-46
2022/08/18 02:55:55;;;;;;;;;12.50;12.50;;;;;24.52;50.58;100791.09;5077065;28;45976;-48
2022/08/18 02:58:20;;;;;;;;;13.00;11.25;;;;;24.50;50.61;100794.81;5078065;28;45426;-53
2022/08/18 03:00:46;;;;;;;;;12.75;11.75;;;;;24.47;51.35;100779.16;5077752;28;45510;-50
2022/08/18 03:03:12;;;;;;;;;12.50;12.50;;;;;24.46;50.87;100791.56;5078067;28;46614;-51
2022/08/18 03:05:38;;;;;;;;;16.25;12.25;;;;;24.44;50.54;100784.66;5077847;28;45186;-49
2022/08/18 03:08:03;;;;;;;;;12.00;12.00;;;;;24.42;50.91;100789.25;5077647;28;45269;-47
2022/08/18 03:10:29;;;;;;;;;13.25;11.75;;;;;24.44;50.59;100785.53;5078183;28;45572;-46
2022/08/18 03:12:54;;;;;;;;;12.00;12.00;;;;;24.43;50.57;100786.47;5077348;28;45398;-47
2022/08/18 03:15:19;;;;;;;;;15.75;12.25;;;;;24.43;50.54;100782.97;5077735;28;45371;-44
2022/08/18 03:17:45;;;;;;;;;11.50;11.50;;;;;24.47;51.14;100779.16;5078038;28;45317;-43
2022/08/18 03:20:10;;;;;;;;;13.50;11.00;;;;;24.48;50.54;100771.06;5084838;28;45595;-44
2022/08/18 03:22:37;;;;;;;;;14.50;12.00;;;;;24.50;50.81;100773.63;5087217;28;45320;-51
2022/08/18 03:25:03;;;;;;;;;11.25;11.25;;;;;24.50;50.90;100769.16;5078344;28;45318;-50
2022/08/18 03:27:29;;;;;;;;;12.25;10.75;;;;;24.49;50.22;100767.47;5077769;28;45339;-49
2022/08/18 03:29:54;;;;;;;;;13.75;12.25;;;;;24.52;50.98;100761.94;5077454;28;45592;-46
2022/08/18 03:32:20;;;;;;;;;17.00;14.50;;;;;24.56;50.33;100770.50;5077135;28;45693;-47
2022/08/18 03:34:45;;;;;;;;;13.00;11.00;;;;;24.58;50.80;100773.91;5076651;28;45399;-46
2022/08/18 03:37:11;;;;;;;;;13.00;12.50;;;;;24.58;50.27;100770.41;5078016;28;45447;-46
2022/08/18 03:39:36;;;;;;;;;13.75;12.25;;;;;24.59;50.72;100772.09;5081544;28;45589;-44
2022/08/18 03:42:01;;;;;;;;;11.75;10.50;;;;;24.60;50.99;100773.78;5081645;28;46327;-44
2022/08/18 03:44:30;;;;;;;;;12.25;11.00;;;;;24.61;50.68;100776.34;5081003;28;45339;-43
2022/08/18 03:46:56;;;;;;;;;11.50;10.50;;;;;24.62;50.38;100778.03;5079351;28;45255;-49
2022/08/18 03:49:21;;;;;;;;;12.00;11.00;;;;;24.62;50.27;100774.50;5080869;28;45240;-43
2022/08/18 03:51:47;;;;;;;;;13.00;10.00;;;;;24.62;50.76;100772.72;5078196;28;45638;-43
2022/08/18 03:54:15;;;;;;;;;12.00;12.00;;;;;24.63;50.21;100769.13;5077558;28;45339;-44
2022/08/18 03:56:41;;;;;;;;;13.50;10.00;;;;;24.64;49.89;100769.97;5077583;28;45438;-44
2022/08/18 03:59:15;;;;;;;;;12.75;11.25;;;;;24.64;49.88;100769.97;5077440;28;45276;-45
2022/08/18 04:01:41;;;;;;;;;13.75;12.00;;;;;24.64;50.04;100775.25;5079238;28;47282;-43
2022/08/18 04:04:11;;;;;;;;;11.00;10.25;;;;;24.64;50.11;100773.44;5083275;28;45367;-45
2022/08/18 04:06:42;;;;;;;;;13.25;11.75;;;;;24.64;50.08;100773.44;5076598;28;45415;-52
2022/08/18 04:09:13;;;;;;;;;15.25;12.00;;;;;24.63;50.53;100766.47;5076267;28;45428;-46
2022/08/18 04:11:42;;;;;;;;;10.25;10.25;;;;;24.63;50.06;100762.97;5076373;28;45468;-49
2022/08/18 04:14:08;;;;;;;;;13.75;11.25;;;;;24.61;50.42;100760.44;5076622;28;45249;-46
2022/08/18 04:16:37;;;;;;;;;9.75;8.50;;;;;24.60;50.07;100764.03;5077013;28;45262;-51
2022/08/18 04:19:03;;;;;;;;;11.00;11.00;;;;;24.59;50.50;100767.66;5079058;28;45624;-50
2022/08/18 04:21:31;;;;;;;;;13.25;11.50;;;;;24.58;50.35;100760.66;5080712;28;45463;-47
2022/08/18 04:24:01;;;;;;;;;12.50;12.50;;;;;24.57;50.36;100758.97;5077072;28;45210;-48
2022/08/18 04:26:27;;;;;;;;;13.00;11.00;;;;;24.56;49.84;100751.97;5076659;28;45363;-51
2022/08/18 04:28:52;;;;;;;;;13.25;12.75;;;;;24.57;49.97;100760.78;5076964;28;45563;-51
2022/08/18 04:31:22;;;;;;;;;13.50;10.00;;;;;24.57;50.28;100764.25;5076489;28;46776;-51
2022/08/18 04:33:47;;;;;;;;;14.00;11.25;;;;;24.58;50.16;100763.31;5077623;28;45743;-45
2022/08/18 04:36:14;;;;;;;;;12.25;11.75;;;;;24.58;49.79;100773.06;5101192;28;45213;-47
2022/08/18 04:38:43;;;;;;;;;11.50;10.75;;;;;24.57;50.57;100774.03;5100692;28;45196;-49
2022/08/18 04:41:11;;;;;;;;;13.50;12.25;;;;;24.54;49.93;100775.94;5095381;28;46732;-47
2022/08/18 04:43:37;;;;;;;;;12.50;11.00;;;;;24.54;50.04;100775.06;5097574;28;45056;-52
2022/08/18 04:46:03;;;;;;;;;11.00;10.00;;;;;24.50;49.97;100776.28;5096838;28;45334;-50
2022/08/18 04:48:32;;;;;;;;;14.75;11.50;;;;;24.52;50.14;100779.66;5097861;28;44908;-45
2022/08/18 04:51:02;;;;;;;;;10.25;10.00;;;;;24.51;49.91;100780.63;5088533;28;46424;-47
2022/08/18 04:53:46;;;;;;;;;10.50;10.50;;;;;24.50;50.47;100782.41;5087788;28;45330;-51
2022/08/18 04:56:25;;;;;;;;;12.00;12.00;;;;;24.47;50.41;100773.84;5088117;28;45378;-47
2022/08/18 04:58:52;;;;;;;;;15.25;14.25;;;;;24.47;49.96;100781.78;5088171;28;45331;-44
2022/08/18 05:01:22;;;;;;;;;13.00;11.25;;;;;24.47;49.89;100789.75;5088253;28;45398;-46
2022/08/18 05:03:51;;;;;;;;;13.50;13.00;;;;;24.45;50.27;100789.00;5084829;28;45682;-45
2022/08/18 05:06:19;;;;;;;;;14.00;12.00;;;;;24.45;49.86;100795.16;5083914;28;44666;-46
2022/08/18 05:08:47;;;;;;;;;15.50;14.75;;;;;24.44;50.55;100790.81;5093630;28;45592;-45
2022/08/18 05:11:13;;;;;;;;;14.75;12.75;;;;;24.45;50.45;100791.66;5090326;28;46283;-45
2022/08/18 05:13:39;;;;;;;;;12.25;10.25;;;;;24.45;50.20;100796.94;5084679;28;45290;-45
2022/08/18 05:16:05;;;;;;;;;11.75;11.00;;;;;24.46;50.18;100804.81;5080533;28;45347;-42
2022/08/18 05:18:33;;;;;;;;;12.25;12.25;;;;;24.47;50.03;100811.78;5061010;28;45557;-43
2022/08/18 05:20:59;;;;;;;;;12.25;10.50;;;;;24.47;50.53;100806.50;5081949;28;47655;-46
2022/08/18 05:23:26;;;;;;;;;12.00;9.50;;;;;24.47;50.76;100808.28;5085500;28;45485;-45
2022/08/18 05:26:02;;;;;;;;;15.00;12.00;;;;;24.48;50.25;100808.16;5079880;28;45237;-43
2022/08/18 05:28:29;;;;;;;;;9.75;9.75;;;;;24.49;50.63;100817.81;5080404;28;45271;-45
2022/08/18 05:30:55;;;;;;;;;11.25;10.75;;;;;24.50;50.10;100816.84;5078980;28;46206;-43
2022/08/18 05:33:20;;;;;;;;;11.75;10.00;;;;;24.52;50.03;100814.09;5079961;28;45389;-43
2022/08/18 05:35:50;;;;;;;;;13.00;11.25;;;;;24.51;50.08;100807.94;5080222;28;45232;-44
2022/08/18 05:38:38;;;;;;;;;11.25;11.25;;;;;24.54;50.43;100817.47;5082576;28;45421;-43
2022/08/18 05:41:09;;;;;;;;;14.00;10.50;;;;;24.55;50.34;100824.47;5083034;28;46365;-44
2022/08/18 05:43:37;;;;;;;;;13.25;11.75;;;;;24.55;50.05;100824.47;5081289;28;45907;-42
2022/08/18 05:46:04;;;;;;;;;11.75;11.25;;;;;24.55;49.99;100827.97;5079989;28;45393;-49
2022/08/18 05:48:31;;;;;;;;;11.50;11.50;;;;;24.55;49.93;100838.56;5079586;28;45535;-54
2022/08/18 05:50:59;;;;;;;;;14.50;13.50;;;;;24.55;49.91;100838.56;5078631;28;46426;-46
2022/08/18 05:56:45;;;;;;;;;11.50;8.75;;;;;24.57;50.17;100843.75;5078833;28;46351;-49
2022/08/18 05:58:58;;;;;;;;;10.50;10.50;;;;;24.59;49.76;100841.84;5092506;28;45375;-46
2022/08/18 06:01:31;;;;;;;;;11.00;11.00;;;;;24.60;49.69;100847.97;5099533;28;45516;-43
2022/08/18 06:04:04;;;;;;;;;10.25;10.25;;;;;24.60;49.82;100848.84;5081952;28;45833;-43
2022/08/18 06:06:32;;;;;;;;;11.00;10.00;;;;;24.60;50.11;100853.28;5078627;28;45468;-42
2022/08/18 06:09:11;;;;;;;;;11.50;9.75;;;;;24.60;49.96;100843.53;5078187;28;45245;-43
2022/08/18 06:11:37;;;;;;;;;13.75;11.75;;;;;24.60;49.91;100843.53;5079070;28;45801;-44
2022/08/18 06:14:02;;;;;;;;;14.75;9.50;;;;;24.61;49.72;100847.88;5078658;28;45265;-43
2022/08/18 06:16:33;;;;;;;;;12.50;12.00;;;;;24.63;49.62;100840.66;5079046;28;45291;-43
2022/08/18 06:19:19;;;;;;;;;10.75;10.75;;;;;24.62;49.28;100838.97;5078908;28;45236;-42
2022/08/18 06:22:09;;;;;;;;;10.50;10.25;;;;;24.62;49.58;100831.03;5078791;28;45383;-43
2022/08/18 06:24:55;;;;;;;;;12.25;12.25;;;;;24.63;49.23;100838.03;5078463;28;45977;-44
2022/08/18 06:27:29;;;;;;;;;14.50;12.50;;;;;24.63;49.04;100847.75;5078104;28;45444;-43
2022/08/18 06:30:06;;;;;;;;;13.75;12.00;;;;;24.63;49.15;100851.28;5059777;28;45497;-43
2022/08/18 06:33:05;;;;;;;;;19.25;13.50;;;;;24.61;49.33;100855.84;5078144;28;47180;-43
2022/08/18 06:35:51;;;;;;;;;14.50;13.00;;;;;24.60;49.76;100858.56;5078321;28;45230;-43
2022/08/18 06:41:11;;;;;;;;;15.25;13.25;;;;;24.57;49.73;100853.50;5081022;28;45375;-45
2022/08/18 06:43:59;;;;;;;;;18.00;16.50;;;;;24.54;49.72;100854.56;5079302;28;48345;-47
2022/08/18 06:46:50;;;;;;;;;22.25;19.25;;;;;24.50;49.58;100853.09;5078598;28;45310;-44
2022/08/18 06:49:39;;;;;;;;;20.00;16.50;;;;;24.48;49.58;100857.66;5042167;28;45239;-43
2022/08/18 06:52:52;;;;;;;;;20.25;17.50;;;;;24.47;49.70;100858.63;5078563;28;45741;-43
2022/08/18 06:55:31;;;;;;;;;18.50;17.50;;;;;24.48;49.93;100871.75;4996191;28;46407;-43
2022/08/18 06:58:18;;;;;;;;;17.50;16.50;;;;;24.49;49.87;100868.16;5075245;28;46351;-43
2022/08/18 07:01:05;;;;;;;;;18.00;15.00;;;;;24.50;49.69;100874.31;5077372;28;45594;-43
2022/08/18 07:03:33;;;;;;;;;17.00;15.00;;;;;24.51;49.77;100865.41;5078310;28;45583;-43
2022/08/18 07:06:22;;;;;;;;;13.75;13.25;;;;;24.53;49.86;100879.38;5077907;28;45589;-43
2022/08/18 07:08:50;;;;;;;;;18.75;18.25;;;;;24.55;50.32;100880.09;5066852;28;45494;-44
2022/08/18 07:11:26;;;;;;;;;18.25;17.50;;;;;24.58;50.23;100879.88;5078178;28;45248;-47
2022/08/18 07:14:10;;;;;;;;;16.00;15.00;;;;;24.58;49.99;100871.94;5077770;28;45457;-46
2022/08/18 07:16:37;;;;;;;;;22.25;20.50;;;;;24.61;50.02;100881.47;5078073;28;45575;-47
2022/08/18 07:19:23;;;;;;;;;19.75;18.50;;;;;24.61;50.32;100871.72;5078678;28;45906;-47
2022/08/18 07:22:04;;;;;;;;;21.50;19.00;;;;;24.63;50.32;100875.13;5095076;28;45447;-53
2022/08/18 07:24:36;;;;;;;;;23.75;21.00;;;;;24.62;50.02;100868.13;5079027;28;45516;-51
2022/08/18 07:27:06;;;;;;;;;23.00;21.00;;;;;24.63;50.42;100872.47;5077436;28;47373;-47
2022/08/18 07:29:58;;;;;;;;;27.50;25.25;;;;;24.61;50.39;100869.06;5077863;28;45446;-45
2022/08/18 07:32:28;;;;;;;;;30.00;23.25;;;;;24.62;50.52;100862.81;5078870;28;45278;-46
2022/08/18 07:34:57;;;;;;;;;28.25;26.50;;;;;24.64;50.01;100865.34;5089103;28;45280;-48
2022/08/18 07:37:31;;;;;;;;;26.50;24.00;;;;;24.65;50.04;100873.19;5089113;28;46442;-43
2022/08/18 07:40:22;;;;;;;;;28.25;23.75;;;;;24.67;50.16;100881.88;5077575;28;45248;-43
2022/08/18 07:43:09;;;;;;;;;27.75;25.00;;;;;24.69;50.48;100882.66;5077233;28;45424;-44
2022/08/18 07:45:41;;;;;;;;;24.50;19.75;;;;;24.71;50.60;100882.53;5077998;28;45838;-43
2022/08/18 07:48:33;;;;;;;;;29.50;25.25;;;;;24.73;50.35;100885.91;5077288;28;45362;-43
2022/08/18 07:51:22;;;;;;;;;25.75;22.75;;;;;24.77;50.49;100894.47;5073595;28;45922;-44
2022/08/18 07:54:12;;;;;;;;;27.00;22.25;;;;;24.80;50.62;100891.63;5077425;28;45323;-43
2022/08/18 07:56:52;;;;;;;;;28.25;22.50;;;;;24.79;50.21;100896.09;5077800;28;45229;-43
2022/08/18 07:59:34;;;;;;;;;24.25;20.75;;;;;24.82;50.55;100882.59;5077366;28;46169;-43
2022/08/18 08:02:25;;;;;;;;;25.75;23.25;;;;;24.84;50.40;100887.78;5082124;28;45898;-44
2022/08/18 08:05:19;;;;;;;;;23.25;22.50;;;;;24.85;50.09;100884.19;5077095;28;45453;-43
2022/08/18 08:07:48;;;;;;;;;28.50;24.00;;;;;24.89;50.48;100890.94;5077693;28;45461;-44
2022/08/18 08:10:29;;;;;;;;;25.25;22.50;;;;;24.92;50.33;100892.50;5076963;28;46585;-45
2022/08/18 08:13:09;;;;;;;;;22.75;21.50;;;;;24.93;50.35;100887.13;5075634;28;45409;-43
2022/08/18 08:15:41;;;;;;;;;28.50;23.50;;;;;24.92;49.96;100882.78;5076009;28;45413;-44
2022/08/18 08:18:24;;;;;;;;;35.00;29.00;;;;;24.89;50.06;100880.34;5076743;28;45260;-43
2022/08/18 08:20:56;;;;;;;;;29.00;24.75;;;;;24.89;50.38;100867.06;5076189;28;46574;-45
2022/08/18 08:23:35;;;;;;;;;25.50;24.75;;;;;24.92;49.88;100873.94;5076487;28;45354;-42
2022/08/18 08:26:23;;;;;;;;;29.25;24.25;;;;;24.95;50.50;100865.78;5076248;28;45816;-46
2022/08/18 08:29:20;;;;;;;;;26.25;23.50;;;;;24.99;50.00;100865.44;5076818;28;45431;-42
2022/08/18 08:31:56;;;;;;;;;33.25;27.50;;;;;25.02;49.78;100859.09;5062526;28;47602;-44
2022/08/18 08:34:50;;;;;;;;;31.00;27.50;;;;;25.04;50.23;100856.31;5084688;28;45316;-48
2022/08/18 08:37:23;;;;;;;;;37.50;30.25;;;;;25.02;50.27;100848.47;5083274;28;44777;-43
2022/08/18 08:40:00;;;;;;;;;32.00;29.25;;;;;25.00;50.38;100851.22;5090293;28;45240;-44
2022/08/18 08:42:28;;;;;;;;;32.25;26.00;;;;;24.98;50.00;100849.66;5086360;28;45289;-43
2022/08/18 08:45:02;;;;;;;;;27.25;27.25;;;;;25.00;50.33;100856.53;5076803;28;45861;-42
2022/08/18 08:47:46;;;;;;;;;31.25;27.50;;;;;25.01;49.67;100860.88;5076720;28;45319;-43
2022/08/18 08:50:23;;;;;;;;;30.25;28.50;;;;;25.03;50.09;100863.41;5077496;28;45252;-45
2022/08/18 08:52:52;;;;;;;;;26.50;25.00;;;;;25.04;49.90;100875.69;5076035;27;46766;-43
2022/08/18 08:55:28;;;;;;;;;34.00;27.00;;;;;25.06;49.58;100875.59;5076197;28;45813;-46
2022/08/18 08:58:11;;;;;;;;;24.75;22.75;;;;;25.08;49.52;100884.31;5076519;28;45325;-43
2022/08/18 09:00:39;;;;;;;;;26.75;24.25;;;;;25.08;49.48;100882.47;5076896;28;45264;-44
2022/08/18 09:03:08;;;;;;;;;24.50;21.75;;;;;25.10;49.91;100877.91;5076430;28;46509;-43
2022/08/18 09:06:03;;;;;;;;;27.50;23.25;;;;;25.12;50.17;100880.44;5076395;28;45957;-43
2022/08/18 09:08:34;;;;;;;;;30.50;25.75;;;;;25.14;49.49;100878.53;5080714;28;45323;-43
2022/08/18 09:11:19;;;;;;;;;23.25;21.25;;;;;25.16;49.69;100890.69;5094771;28;44779;-44
2022/08/18 09:14:10;;;;;;;;;22.75;22.25;;;;;25.17;50.15;100888.91;5099128;28;45417;-42
2022/08/18 09:16:53;;;;;;;;;25.25;23.50;;;;;25.16;49.50;100888.06;5085150;28;45806;-45
2022/08/18 09:19:33;;;;;;;;;24.75;23.25;;;;;25.17;49.46;100891.56;5078728;28;45387;-43
2022/08/18 09:22:08;;;;;;;;;25.25;23.00;;;;;25.17;50.11;100895.06;5083446;28;45305;-45
2022/08/18 09:24:46;;;;;;;;;28.25;25.25;;;;;25.19;49.65;100892.28;5084378;28;45563;-44
2022/08/18 09:27:14;;;;;;;;;27.25;25.00;;;;;25.20;49.86;100893.97;5082203;28;45699;-43
2022/08/18 09:29:54;;;;;;;;;26.50;24.00;;;;;25.22;49.80;100897.34;5077744;28;45288;-51
2022/08/18 09:32:19;;;;;;;;;22.00;19.75;;;;;25.24;50.04;100895.44;5077432;28;45520;-50
2022/08/18 09:35:01;;;;;;;;;23.00;20.00;;;;;25.26;49.33;100892.66;5079325;28;45307;-54
2022/08/18 09:37:37;;;;;;;;;19.50;19.50;;;;;25.28;49.29;100894.25;5085277;28;45432;-51
2022/08/18 09:43:15;;;;;;;;;20.50;18.50;;;;;25.31;49.45;100886.06;5098232;28;45331;-48
2022/08/18 09:45:52;;;;;;;;;17.25;16.25;;;;;25.34;49.21;100885.00;5078197;28;45893;-49
2022/08/18 09:48:37;;;;;;;;;22.50;19.50;;;;;25.36;49.10;100892.84;5076980;28;45326;-46
2022/08/18 09:51:17;;;;;;;;;19.25;17.25;;;;;25.39;48.86;100892.59;5076104;28;45170;-48
2022/08/18 09:53:45;;;;;;;;;26.25;21.50;;;;;25.40;48.54;100896.97;5076629;28;45281;-52
2022/08/18 09:56:12;;;;;;;;;19.50;17.75;;;;;25.41;48.37;100896.88;5076165;28;45483;-49
2022/08/18 09:58:49;;;;;;;;;19.25;16.50;;;;;25.44;48.57;100887.81;5059850;28;46243;-44
2022/08/18 10:01:31;;;;;;;;;22.50;19.25;;;;;25.45;48.41;100893.03;5091143;28;45341;-46
2022/08/18 10:04:19;;;;;;;;;19.50;17.00;;;;;25.48;48.42;100889.28;5076044;28;45386;-45
2022/08/18 10:06:47;;;;;;;;;17.75;17.25;;;;;25.48;48.07;100886.63;5079285;28;46086;-48
2022/08/18 10:09:18;;;;;;;;;20.00;18.25;;;;;25.51;47.90;100885.53;5079395;28;45871;-50
2022/08/18 10:11:55;;;;;;;;;21.25;19.50;;;;;25.53;48.44;100884.47;5079440;28;45322;-48
2022/08/18 10:14:48;;;;;;;;;18.75;18.25;;;;;25.57;48.17;100871.81;5079027;28;45505;-49
2022/08/18 10:17:34;;;;;;;;;22.00;20.75;;;;;25.60;48.48;100866.25;5079292;28;46270;-45
2022/08/18 10:20:09;;;;;;;;;18.75;18.75;;;;;25.61;47.78;100862.66;5078704;28;45280;-45
2022/08/18 10:22:38;;;;;;;;;24.75;21.75;;;;;25.62;47.80;100854.59;5079016;28;45391;-49
2022/08/18 10:25:07;;;;;;;;;27.25;26.00;;;;;25.66;47.41;100849.03;5079282;28;45402;-47
2022/08/18 10:27:45;;;;;;;;;21.00;19.00;;;;;25.67;47.79;100848.91;5078752;28;46717;-55
2022/08/18 10:30:44;;;;;;;;;26.00;25.50;;;;;25.70;47.21;100847.81;5079202;28;45832;-49
2022/08/18 10:33:11;;;;;;;;;25.25;22.00;;;;;25.70;47.28;100847.81;5034517;28;45412;-47
2022/08/18 10:35:36;;;;;;;;;21.75;20.25;;;;;25.73;47.51;100843.13;5078877;28;45640;-47
2022/08/18 10:38:12;;;;;;;;;21.33;19.67;;;;;25.76;47.12;100842.03;5078423;28;45664;-46
2022/08/18 10:40:42;;;;;;;;;17.25;17.25;;;;;25.77;47.04;100828.66;5084553;28;45201;-46
2022/08/18 10:43:22;;;;;;;;;22.00;18.25;;;;;25.78;47.09;100829.50;5078944;28;45517;-51
2022/08/18 10:45:52;;;;;;;;;19.50;16.75;;;;;25.82;46.52;100838.06;5078730;28;45528;-46
2022/08/18 10:48:33;;;;;;;;;18.75;16.00;;;;;25.83;46.87;100843.25;5078030;28;45502;-47
2022/08/18 10:51:10;;;;;;;;;17.00;16.00;;;;;25.85;46.26;100835.16;5077808;28;45302;-45
2022/08/18 10:54:09;;;;;;;;;16.75;14.00;;;;;25.85;46.81;100830.69;5078208;28;45252;-49
2022/08/18 10:56:48;;;;;;;;;20.25;18.00;;;;;25.88;46.49;100833.09;5078676;28;45771;-45
2022/08/18 10:59:39;;;;;;;;;17.75;17.75;;;;;25.90;46.72;100833.84;5078650;28;45321;-49
2022/08/18 11:02:07;;;;;;;;;17.25;17.25;;;;;25.92;46.75;100831.06;5077755;28;45400;-46
2022/08/18 11:04:47;;;;;;;;;20.00;16.00;;;;;25.91;46.32;100829.34;5060117;28;45234;-50
2022/08/18 11:07:18;;;;;;;;;16.00;15.25;;;;;25.96;46.12;100826.38;5080655;28;45497;-49
2022/08/18 11:09:48;;;;;;;;;15.00;14.00;;;;;25.96;46.58;100827.19;5091115;28;46160;-46
2022/08/18 11:12:13;;;;;;;;;13.00;13.00;;;;;25.97;46.48;100828.03;5084120;28;45398;-48
2022/08/18 11:14:38;;;;;;;;;14.50;14.50;;;;;25.99;46.21;100826.97;5078127;28;45482;-53
2022/08/18 11:17:21;;;;;;;;;14.00;14.00;;;;;26.01;46.36;100826.84;5077480;28;45570;-51
2022/08/18 11:19:49;;;;;;;;;13.25;11.75;;;;;26.01;45.85;100825.03;5092876;28;46534;-46
2022/08/18 11:22:30;;;;;;;;;14.25;12.50;;;;;26.01;45.93;100825.03;5066456;28;45899;-48
2022/08/18 11:24:56;;;;;;;;;14.75;14.75;;;;;26.00;45.60;100820.69;5077774;28;45308;-46
2022/08/18 11:27:25;;;;;;;;;17.00;14.00;;;;;26.03;45.84;100824.91;5077575;28;45612;-50
2022/08/18 11:29:51;;;;;;;;;15.25;12.75;;;;;26.04;45.79;100823.94;5077483;28;45487;-47
2022/08/18 11:32:22;;;;;;;;;16.00;13.25;;;;;26.04;46.11;100838.06;5077772;28;45411;-45
2022/08/18 11:34:58;;;;;;;;;12.00;12.00;;;;;26.03;45.85;100828.41;5077825;28;45464;-45
2022/08/18 11:37:54;;;;;;;;;13.00;12.25;;;;;26.05;45.58;100820.31;5078386;28;45390;-45
2022/08/18 11:40:20;;;;;;;;;13.25;12.00;;;;;26.04;45.70;100824.78;5078345;28;46185;-45
2022/08/18 11:42:57;;;;;;;;;14.75;14.25;;;;;26.05;45.32;100821.16;5077139;28;45509;-45
2022/08/18 11:45:28;;;;;;;;;16.00;13.75;;;;;26.05;45.23;100815.84;5078102;28;45400;-45
2022/08/18 11:48:15;;;;;;;;;14.50;12.50;;;;;26.06;45.30;100822.03;5079416;28;45402;-45
2022/08/18 11:50:56;;;;;;;;;18.25;13.75;;;;;26.07;45.06;100831.69;5085192;28;46637;-45
2022/08/18 11:53:42;;;;;;;;;15.00;14.00;;;;;26.07;44.80;100834.34;5086341;28;45692;-44
2022/08/18 11:56:13;;;;;;;;;13.00;13.00;;;;;26.09;45.40;100843.00;5087370;28;44762;-45